Terminal Aerodrome Forecast
Issued by NWS

Current Version | Previous Version | Text Only | Print | Product List | Glossary On
Versions: 1 2 3 4 5 6 7 8 9 10 11 12 13 14 15 16 17 18
000
FTAK31 PAJN 282334
TAFAPG
TAF
PAPG 282334Z 2900/2924 07006KT P6SM SCT025 BKN040 OVC080
     FM290800 00000KT P6SM SCT007 OVC025
     FM291900 06005KT P6SM SCT025 OVC080
      AMD LTD TO CLD VIS AND WIND 2906/2915=

USA.gov is the U.S. government's official web portal to all federal, state and local government web resources and services.